sensor_id;sensor_type;location;lat;lon;timestamp;temperature;humidity
40151;DHT22;25866;52.420;10.640;2023-04-03T00:02:18;1.20;99.90
40151;DHT22;25866;52.420;10.640;2023-04-03T00:04:43;1.10;99.90
40151;DHT22;25866;52.420;10.640;2023-04-03T00:07:10;1.20;99.90
40151;DHT22;25866;52.420;10.640;2023-04-03T00:09:35;1.20;99.90
40151;DHT22;25866;52.420;10.640;2023-04-03T00:12:01;1.20;99.90
40151;DHT22;25866;52.420;10.640;2023-04-03T00:14:26;1.10;99.90
40151;DHT22;25866;52.420;10.640;2023-04-03T00:16:53;1.00;99.90
40151;DHT22;25866;52.420;10.640;2023-04-03T00:19:19;1.00;99.90
40151;DHT22;25866;52.420;10.640;2023-04-03T00:21:45;0.90;99.90
40151;DHT22;25866;52.420;10.640;2023-04-03T00:24:11;1.00;99.90
40151;DHT22;25866;52.420;10.640;2023-04-03T00:26:37;0.80;99.90
40151;DHT22;25866;52.420;10.640;2023-04-03T00:29:03;0.80;99.90
40151;DHT22;25866;52.420;10.640;2023-04-03T00:31:28;0.80;99.90
40151;DHT22;25866;52.420;10.640;2023-04-03T00:33:54;0.80;99.90
40151;DHT22;25866;52.420;10.640;2023-04-03T00:36:20;0.70;99.90
40151;DHT22;25866;52.420;10.640;2023-04-03T00:38:46;0.70;99.90
40151;DHT22;25866;52.420;10.640;2023-04-03T00:41:11;0.60;99.90
40151;DHT22;25866;52.420;10.640;2023-04-03T00:43:37;0.60;99.90
40151;DHT22;25866;52.420;10.640;2023-04-03T00:46:03;0.50;99.90
40151;DHT22;25866;52.420;10.640;2023-04-03T00:48:42;0.60;99.90
40151;DHT22;25866;52.420;10.640;2023-04-03T00:51:13;0.60;99.90
40151;DHT22;25866;52.420;10.640;2023-04-03T00:53:53;0.60;99.90
40151;DHT22;25866;52.420;10.640;2023-04-03T00:56:23;0.60;99.90
40151;DHT22;25866;52.420;10.640;2023-04-03T00:58:54;0.70;99.90
40151;DHT22;25866;52.420;10.640;2023-04-03T01:01:24;0.70;99.90
40151;DHT22;25866;52.420;10.640;2023-04-03T01:03:50;0.70;99.90
40151;DHT22;25866;52.420;10.640;2023-04-03T01:06:18;0.70;99.90
40151;DHT22;25866;52.420;10.640;2023-04-03T01:08:48;0.70;99.90
40151;DHT22;25866;52.420;10.640;2023-04-03T01:11:14;0.80;99.90
40151;DHT22;25866;52.420;10.640;2023-04-03T01:13:40;0.80;99.90
40151;DHT22;25866;52.420;10.640;2023-04-03T01:16:06;0.80;99.90
40151;DHT22;25866;52.420;10.640;2023-04-03T01:18:33;0.70;99.90
40151;DHT22;25866;52.420;10.640;2023-04-03T01:26:48;0.70;99.90
40151;DHT22;25866;52.420;10.640;2023-04-03T01:29:14;0.70;99.90
40151;DHT22;25866;52.420;10.640;2023-04-03T01:31:51;0.60;99.90
40151;DHT22;25866;52.420;10.640;2023-04-03T01:34:18;0.60;99.90
40151;DHT22;25866;52.420;10.640;2023-04-03T01:36:44;0.60;99.90
40151;DHT22;25866;52.420;10.640;2023-04-03T01:39:11;0.60;99.90
40151;DHT22;25866;52.420;10.640;2023-04-03T01:41:37;0.60;99.90
40151;DHT22;25866;52.420;10.640;2023-04-03T01:44:03;0.60;99.90
40151;DHT22;25866;52.420;10.640;2023-04-03T01:46:29;0.60;99.90
40151;DHT22;25866;52.420;10.640;2023-04-03T01:48:58;0.60;99.90
40151;DHT22;25866;52.420;10.640;2023-04-03T01:51:23;0.60;99.90
40151;DHT22;25866;52.420;10.640;2023-04-03T01:53:49;0.60;99.90
40151;DHT22;25866;52.420;10.640;2023-04-03T01:56:15;0.60;99.90
40151;DHT22;25866;52.420;10.640;2023-04-03T01:58:40;0.60;99.90
40151;DHT22;25866;52.420;10.640;2023-04-03T02:01:06;0.50;99.90
40151;DHT22;25866;52.420;10.640;2023-04-03T02:03:32;0.60;99.90
40151;DHT22;25866;52.420;10.640;2023-04-03T02:05:58;0.60;99.90
40151;DHT22;25866;52.420;10.640;2023-04-03T02:08:24;0.50;99.90
40151;DHT22;25866;52.420;10.640;2023-04-03T02:10:50;0.50;99.90
40151;DHT22;25866;52.420;10.640;2023-04-03T02:13:17;0.50;99.90
40151;DHT22;25866;52.420;10.640;2023-04-03T02:15:42;0.50;99.90
40151;DHT22;25866;52.420;10.640;2023-04-03T02:18:08;0.50;99.90
40151;DHT22;25866;52.420;10.640;2023-04-03T02:20:35;0.50;99.90
40151;DHT22;25866;52.420;10.640;2023-04-03T02:23:01;0.50;99.90
40151;DHT22;25866;52.420;10.640;2023-04-03T02:25:28;0.40;99.90
40151;DHT22;25866;52.420;10.640;2023-04-03T02:27:53;0.40;99.90
40151;DHT22;25866;52.420;10.640;2023-04-03T02:30:19;0.40;99.90
40151;DHT22;25866;52.420;10.640;2023-04-03T02:32:45;0.40;99.90
40151;DHT22;25866;52.420;10.640;2023-04-03T02:35:11;0.40;99.90
40151;DHT22;25866;52.420;10.640;2023-04-03T02:37:38;0.30;99.90
40151;DHT22;25866;52.420;10.640;2023-04-03T02:40:04;0.40;99.90
40151;DHT22;25866;52.420;10.640;2023-04-03T02:42:30;0.30;99.90
40151;DHT22;25866;52.420;10.640;2023-04-03T02:44:56;0.30;99.90
40151;DHT22;25866;52.420;10.640;2023-04-03T02:47:22;0.30;99.90
40151;DHT22;25866;52.420;10.640;2023-04-03T02:49:48;0.30;99.90
40151;DHT22;25866;52.420;10.640;2023-04-03T02:52:15;0.30;99.90
40151;DHT22;25866;52.420;10.640;2023-04-03T02:54:41;0.30;99.90
40151;DHT22;25866;52.420;10.640;2023-04-03T02:57:07;0.30;99.90
40151;DHT22;25866;52.420;10.640;2023-04-03T02:59:37;0.30;99.90
40151;DHT22;25866;52.420;10.640;2023-04-03T03:02:06;0.40;99.90
40151;DHT22;25866;52.420;10.640;2023-04-03T03:04:33;0.30;99.90
40151;DHT22;25866;52.420;10.640;2023-04-03T03:06:58;0.30;99.90
40151;DHT22;25866;52.420;10.640;2023-04-03T03:09:24;0.30;99.90
40151;DHT22;25866;52.420;10.640;2023-04-03T03:11:51;0.30;99.90
40151;DHT22;25866;52.420;10.640;2023-04-03T03:14:16;0.20;99.90
40151;DHT22;25866;52.420;10.640;2023-04-03T03:16:42;0.20;99.90
40151;DHT22;25866;52.420;10.640;2023-04-03T03:19:08;0.20;99.90
40151;DHT22;25866;52.420;10.640;2023-04-03T03:21:33;0.30;99.90
40151;DHT22;25866;52.420;10.640;2023-04-03T03:23:59;0.20;99.90
40151;DHT22;25866;52.420;10.640;2023-04-03T03:26:25;0.20;99.90
40151;DHT22;25866;52.420;10.640;2023-04-03T03:28:51;0.20;99.90
40151;DHT22;25866;52.420;10.640;2023-04-03T03:31:17;0.20;99.90
40151;DHT22;25866;52.420;10.640;2023-04-03T03:33:43;0.20;99.90
40151;DHT22;25866;52.420;10.640;2023-04-03T03:36:09;0.20;99.90
40151;DHT22;25866;52.420;10.640;2023-04-03T03:38:34;0.10;99.90
40151;DHT22;25866;52.420;10.640;2023-04-03T03:41:00;0.20;99.90
40151;DHT22;25866;52.420;10.640;2023-04-03T03:43:26;0.20;99.90
40151;DHT22;25866;52.420;10.640;2023-04-03T03:45:52;0.10;99.90
40151;DHT22;25866;52.420;10.640;2023-04-03T03:48:20;0.10;99.90
40151;DHT22;25866;52.420;10.640;2023-04-03T03:50:46;0.10;99.90
40151;DHT22;25866;52.420;10.640;2023-04-03T03:53:12;0.20;99.90
40151;DHT22;25866;52.420;10.640;2023-04-03T03:55:37;0.20;99.90
40151;DHT22;25866;52.420;10.640;2023-04-03T03:58:03;0.10;99.90
40151;DHT22;25866;52.420;10.640;2023-04-03T04:00:29;0.00;99.90
40151;DHT22;25866;52.420;10.640;2023-04-03T04:02:56;0.00;99.90
40151;DHT22;25866;52.420;10.640;2023-04-03T04:05:22;0.00;99.90
40151;DHT22;25866;52.420;10.640;2023-04-03T04:07:48;0.00;99.90
40151;DHT22;25866;52.420;10.640;2023-04-03T04:10:14;0.00;99.90
40151;DHT22;25866;52.420;10.640;2023-04-03T04:12:39;0.00;99.90
40151;DHT22;25866;52.420;10.640;2023-04-03T04:15:05;0.00;99.90
40151;DHT22;25866;52.420;10.640;2023-04-03T04:17:31;-0.10;99.90
40151;DHT22;25866;52.420;10.640;2023-04-03T04:19:57;0.00;99.90
40151;DHT22;25866;52.420;10.640;2023-04-03T04:22:23;-0.10;99.90
40151;DHT22;25866;52.420;10.640;2023-04-03T04:24:48;-0.10;99.90
40151;DHT22;25866;52.420;10.640;2023-04-03T04:27:14;-0.10;99.90
40151;DHT22;25866;52.420;10.640;2023-04-03T04:29:41;-0.30;99.90
40151;DHT22;25866;52.420;10.640;2023-04-03T04:32:07;-0.20;99.90
40151;DHT22;25866;52.420;10.640;2023-04-03T04:34:33;-0.40;99.90
40151;DHT22;25866;52.420;10.640;2023-04-03T04:36:58;-0.30;99.90
40151;DHT22;25866;52.420;10.640;2023-04-03T04:39:24;-0.40;99.90
40151;DHT22;25866;52.420;10.640;2023-04-03T04:41:50;-0.50;99.90
40151;DHT22;25866;52.420;10.640;2023-04-03T04:44:15;-0.50;99.90
40151;DHT22;25866;52.420;10.640;2023-04-03T04:46:41;-0.40;99.90
40151;DHT22;25866;52.420;10.640;2023-04-03T04:49:07;-0.40;99.90
40151;DHT22;25866;52.420;10.640;2023-04-03T04:51:32;-0.50;99.90
40151;DHT22;25866;52.420;10.640;2023-04-03T04:53:58;-0.50;99.90
40151;DHT22;25866;52.420;10.640;2023-04-03T04:56:24;-0.40;99.90
40151;DHT22;25866;52.420;10.640;2023-04-03T04:58:50;-0.50;99.90
40151;DHT22;25866;52.420;10.640;2023-04-03T05:01:16;-0.40;99.90
40151;DHT22;25866;52.420;10.640;2023-04-03T05:03:42;-0.50;99.90
40151;DHT22;25866;52.420;10.640;2023-04-03T05:06:07;-0.50;99.90
40151;DHT22;25866;52.420;10.640;2023-04-03T05:08:33;-0.60;99.90
40151;DHT22;25866;52.420;10.640;2023-04-03T05:11:00;-0.50;99.90
40151;DHT22;25866;52.420;10.640;2023-04-03T05:13:25;-0.50;99.90
40151;DHT22;25866;52.420;10.640;2023-04-03T05:15:51;-0.40;99.90
40151;DHT22;25866;52.420;10.640;2023-04-03T05:18:17;-0.40;99.90
40151;DHT22;25866;52.420;10.640;2023-04-03T05:20:42;-0.30;99.90
40151;DHT22;25866;52.420;10.640;2023-04-03T05:23:09;-0.30;99.90
40151;DHT22;25866;52.420;10.640;2023-04-03T05:25:38;-0.30;99.90
40151;DHT22;25866;52.420;10.640;2023-04-03T05:28:03;-0.20;99.90
40151;DHT22;25866;52.420;10.640;2023-04-03T05:30:29;-0.20;99.90
40151;DHT22;25866;52.420;10.640;2023-04-03T05:32:55;-0.10;99.90
40151;DHT22;25866;52.420;10.640;2023-04-03T05:35:21;0.10;99.90
40151;DHT22;25866;52.420;10.640;2023-04-03T05:37:46;0.20;99.90
40151;DHT22;25866;52.420;10.640;2023-04-03T05:40:12;0.30;99.90
40151;DHT22;25866;52.420;10.640;2023-04-03T05:42:38;0.40;99.90
40151;DHT22;25866;52.420;10.640;2023-04-03T05:45:04;0.40;99.90
40151;DHT22;25866;52.420;10.640;2023-04-03T05:47:30;0.60;99.90
40151;DHT22;25866;52.420;10.640;2023-04-03T05:49:56;0.60;99.90
40151;DHT22;25866;52.420;10.640;2023-04-03T05:52:30;0.60;99.90
40151;DHT22;25866;52.420;10.640;2023-04-03T05:54:56;0.70;99.90
40151;DHT22;25866;52.420;10.640;2023-04-03T05:57:22;0.70;99.90
40151;DHT22;25866;52.420;10.640;2023-04-03T05:59:48;0.80;99.90
40151;DHT22;25866;52.420;10.640;2023-04-03T06:02:17;0.90;99.90
40151;DHT22;25866;52.420;10.640;2023-04-03T06:04:43;0.90;99.90
40151;DHT22;25866;52.420;10.640;2023-04-03T06:07:12;1.00;99.90
40151;DHT22;25866;52.420;10.640;2023-04-03T06:09:38;1.10;99.90
40151;DHT22;25866;52.420;10.640;2023-04-03T06:12:04;1.10;99.90
40151;DHT22;25866;52.420;10.640;2023-04-03T06:14:30;1.30;99.90
40151;DHT22;25866;52.420;10.640;2023-04-03T06:16:56;1.30;99.90
40151;DHT22;25866;52.420;10.640;2023-04-03T06:19:22;1.30;99.90
40151;DHT22;25866;52.420;10.640;2023-04-03T06:21:49;1.30;99.90
40151;DHT22;25866;52.420;10.640;2023-04-03T06:24:17;1.40;99.90
40151;DHT22;25866;52.420;10.640;2023-04-03T06:26:43;1.50;99.90
40151;DHT22;25866;52.420;10.640;2023-04-03T06:29:09;1.50;99.90
40151;DHT22;25866;52.420;10.640;2023-04-03T06:31:35;1.50;99.90
40151;DHT22;25866;52.420;10.640;2023-04-03T06:34:03;1.60;99.90
40151;DHT22;25866;52.420;10.640;2023-04-03T06:36:29;1.80;99.90
40151;DHT22;25866;52.420;10.640;2023-04-03T06:38:55;1.80;99.90
40151;DHT22;25866;52.420;10.640;2023-04-03T06:41:21;1.90;99.90
40151;DHT22;25866;52.420;10.640;2023-04-03T06:43:47;2.00;99.90
40151;DHT22;25866;52.420;10.640;2023-04-03T06:46:22;2.10;99.90
40151;DHT22;25866;52.420;10.640;2023-04-03T06:48:48;2.00;99.90
40151;DHT22;25866;52.420;10.640;2023-04-03T06:51:20;2.10;99.90
40151;DHT22;25866;52.420;10.640;2023-04-03T06:53:47;2.10;99.90
40151;DHT22;25866;52.420;10.640;2023-04-03T06:56:14;2.10;99.90
40151;DHT22;25866;52.420;10.640;2023-04-03T06:58:40;2.20;99.90
40151;DHT22;25866;52.420;10.640;2023-04-03T07:01:07;2.30;99.90
40151;DHT22;25866;52.420;10.640;2023-04-03T07:03:35;2.40;99.90
40151;DHT22;25866;52.420;10.640;2023-04-03T07:06:01;2.50;99.90
40151;DHT22;25866;52.420;10.640;2023-04-03T07:08:26;2.70;99.90
40151;DHT22;25866;52.420;10.640;2023-04-03T07:10:52;2.70;99.90
40151;DHT22;25866;52.420;10.640;2023-04-03T07:13:18;2.70;99.90
40151;DHT22;25866;52.420;10.640;2023-04-03T07:15:43;2.80;99.90
40151;DHT22;25866;52.420;10.640;2023-04-03T07:18:09;2.80;99.90
40151;DHT22;25866;52.420;10.640;2023-04-03T07:20:35;2.90;99.90
40151;DHT22;25866;52.420;10.640;2023-04-03T07:23:02;3.00;99.90
40151;DHT22;25866;52.420;10.640;2023-04-03T07:25:28;3.10;99.90
40151;DHT22;25866;52.420;10.640;2023-04-03T07:27:54;3.10;99.90
40151;DHT22;25866;52.420;10.640;2023-04-03T07:30:20;3.20;99.90
40151;DHT22;25866;52.420;10.640;2023-04-03T07:32:47;3.30;99.90
40151;DHT22;25866;52.420;10.640;2023-04-03T07:35:13;3.30;99.90
40151;DHT22;25866;52.420;10.640;2023-04-03T07:37:38;3.20;99.90
40151;DHT22;25866;52.420;10.640;2023-04-03T07:40:05;3.20;99.90
40151;DHT22;25866;52.420;10.640;2023-04-03T07:42:33;3.30;99.90
40151;DHT22;25866;52.420;10.640;2023-04-03T07:44:58;3.50;99.90
40151;DHT22;25866;52.420;10.640;2023-04-03T07:47:25;3.60;99.90
40151;DHT22;25866;52.420;10.640;2023-04-03T07:49:51;3.80;99.90
40151;DHT22;25866;52.420;10.640;2023-04-03T07:52:17;3.70;99.90
40151;DHT22;25866;52.420;10.640;2023-04-03T07:54:43;3.80;99.90
40151;DHT22;25866;52.420;10.640;2023-04-03T07:57:08;3.90;99.90
40151;DHT22;25866;52.420;10.640;2023-04-03T07:59:34;3.90;99.90
40151;DHT22;25866;52.420;10.640;2023-04-03T08:02:00;4.00;99.90
40151;DHT22;25866;52.420;10.640;2023-04-03T08:04:26;4.20;99.90
40151;DHT22;25866;52.420;10.640;2023-04-03T08:06:52;4.10;99.90
40151;DHT22;25866;52.420;10.640;2023-04-03T08:09:18;4.30;99.90
40151;DHT22;25866;52.420;10.640;2023-04-03T08:11:45;4.40;99.90
40151;DHT22;25866;52.420;10.640;2023-04-03T08:14:13;4.50;99.90
40151;DHT22;25866;52.420;10.640;2023-04-03T08:16:43;4.60;99.90
40151;DHT22;25866;52.420;10.640;2023-04-03T08:19:09;4.70;99.90
40151;DHT22;25866;52.420;10.640;2023-04-03T08:21:36;4.70;99.90
40151;DHT22;25866;52.420;10.640;2023-04-03T08:24:03;4.60;99.90
40151;DHT22;25866;52.420;10.640;2023-04-03T08:26:29;4.60;99.90
40151;DHT22;25866;52.420;10.640;2023-04-03T08:28:55;4.80;99.90
40151;DHT22;25866;52.420;10.640;2023-04-03T08:31:20;4.80;99.90
40151;DHT22;25866;52.420;10.640;2023-04-03T08:33:47;4.90;99.90
40151;DHT22;25866;52.420;10.640;2023-04-03T08:36:22;5.00;99.90
40151;DHT22;25866;52.420;10.640;2023-04-03T08:38:49;5.20;99.90
40151;DHT22;25866;52.420;10.640;2023-04-03T08:44:11;5.20;99.90
40151;DHT22;25866;52.420;10.640;2023-04-03T08:49:31;5.30;99.90
40151;DHT22;25866;52.420;10.640;2023-04-03T08:52:01;5.30;99.90
40151;DHT22;25866;52.420;10.640;2023-04-03T08:54:33;5.30;99.90
40151;DHT22;25866;52.420;10.640;2023-04-03T08:57:02;5.50;99.90
40151;DHT22;25866;52.420;10.640;2023-04-03T08:59:33;5.50;99.90
40151;DHT22;25866;52.420;10.640;2023-04-03T09:02:02;5.60;99.90
40151;DHT22;25866;52.420;10.640;2023-04-03T09:04:31;5.70;99.90
40151;DHT22;25866;52.420;10.640;2023-04-03T09:07:05;5.80;99.90
40151;DHT22;25866;52.420;10.640;2023-04-03T09:09:39;5.90;99.90
40151;DHT22;25866;52.420;10.640;2023-04-03T09:12:25;5.70;99.90
40151;DHT22;25866;52.420;10.640;2023-04-03T09:18:00;5.50;99.90
40151;DHT22;25866;52.420;10.640;2023-04-03T09:23:29;5.60;99.90
40151;DHT22;25866;52.420;10.640;2023-04-03T09:26:05;5.70;99.90
40151;DHT22;25866;52.420;10.640;2023-04-03T09:28:37;5.60;99.90
40151;DHT22;25866;52.420;10.640;2023-04-03T09:31:21;5.90;99.90
40151;DHT22;25866;52.420;10.640;2023-04-03T09:33:54;6.20;99.90
40151;DHT22;25866;52.420;10.640;2023-04-03T09:36:44;6.30;99.90
40151;DHT22;25866;52.420;10.640;2023-04-03T09:39:22;6.40;99.80
40151;DHT22;25866;52.420;10.640;2023-04-03T09:42:17;6.30;99.90
40151;DHT22;25866;52.420;10.640;2023-04-03T09:45:01;5.90;99.90
40151;DHT22;25866;52.420;10.640;2023-04-03T09:52:38;5.60;99.80
40151;DHT22;25866;52.420;10.640;2023-04-03T09:55:15;5.60;99.90
40151;DHT22;25866;52.420;10.640;2023-04-03T09:57:41;5.40;98.40
40151;DHT22;25866;52.420;10.640;2023-04-03T10:00:23;5.30;99.20
40151;DHT22;25866;52.420;10.640;2023-04-03T10:02:53;5.30;99.90
40151;DHT22;25866;52.420;10.640;2023-04-03T10:05:40;5.50;99.40
40151;DHT22;25866;52.420;10.640;2023-04-03T10:10:35;5.60;98.60
40151;DHT22;25866;52.420;10.640;2023-04-03T10:13:11;5.60;98.80
40151;DHT22;25866;52.420;10.640;2023-04-03T10:15:50;5.50;97.40
40151;DHT22;25866;52.420;10.640;2023-04-03T10:20:50;5.80;98.30
40151;DHT22;25866;52.420;10.640;2023-04-03T10:23:24;5.90;98.20
40151;DHT22;25866;52.420;10.640;2023-04-03T10:34:06;5.50;97.30
40151;DHT22;25866;52.420;10.640;2023-04-03T10:36:44;5.60;97.30
40151;DHT22;25866;52.420;10.640;2023-04-03T10:42:50;6.00;97.00
40151;DHT22;25866;52.420;10.640;2023-04-03T10:50:53;6.10;96.80
40151;DHT22;25866;52.420;10.640;2023-04-03T10:53:52;6.00;96.20
40151;DHT22;25866;52.420;10.640;2023-04-03T10:56:40;5.90;97.90
40151;DHT22;25866;52.420;10.640;2023-04-03T10:59:18;5.90;96.80
40151;DHT22;25866;52.420;10.640;2023-04-03T11:01:51;5.70;96.80
40151;DHT22;25866;52.420;10.640;2023-04-03T11:04:19;5.70;97.10
40151;DHT22;25866;52.420;10.640;2023-04-03T11:07:08;5.70;97.80
40151;DHT22;25866;52.420;10.640;2023-04-03T11:09:41;5.80;97.20
40151;DHT22;25866;52.420;10.640;2023-04-03T11:12:25;5.80;97.20
40151;DHT22;25866;52.420;10.640;2023-04-03T11:14:53;5.50;96.50
40151;DHT22;25866;52.420;10.640;2023-04-03T11:20:03;5.60;98.10
40151;DHT22;25866;52.420;10.640;2023-04-03T11:22:42;5.60;98.20
40151;DHT22;25866;52.420;10.640;2023-04-03T11:27:47;5.70;98.00
40151;DHT22;25866;52.420;10.640;2023-04-03T11:30:20;5.70;97.20
40151;DHT22;25866;52.420;10.640;2023-04-03T11:35:23;5.70;95.80
40151;DHT22;25866;52.420;10.640;2023-04-03T11:37:51;5.90;96.50
40151;DHT22;25866;52.420;10.640;2023-04-03T11:40:31;6.00;94.90
40151;DHT22;25866;52.420;10.640;2023-04-03T11:53:46;6.80;94.50
40151;DHT22;25866;52.420;10.640;2023-04-03T12:01:55;6.70;95.00
40151;DHT22;25866;52.420;10.640;2023-04-03T12:04:24;6.90;95.40
40151;DHT22;25866;52.420;10.640;2023-04-03T12:07:00;7.00;95.00
40151;DHT22;25866;52.420;10.640;2023-04-03T12:12:31;6.50;94.60
40151;DHT22;25866;52.420;10.640;2023-04-03T12:21:06;6.10;95.20
40151;DHT22;25866;52.420;10.640;2023-04-03T12:23:36;6.10;95.10
40151;DHT22;25866;52.420;10.640;2023-04-03T12:26:26;6.10;95.70
40151;DHT22;25866;52.420;10.640;2023-04-03T12:28:53;6.00;94.70
40151;DHT22;25866;52.420;10.640;2023-04-03T12:31:24;6.00;95.00
40151;DHT22;25866;52.420;10.640;2023-04-03T12:34:14;6.20;94.40
40151;DHT22;25866;52.420;10.640;2023-04-03T12:40:11;6.90;92.70
40151;DHT22;25866;52.420;10.640;2023-04-03T12:43:36;7.50;93.90
40151;DHT22;25866;52.420;10.640;2023-04-03T12:48:30;7.90;92.10
40151;DHT22;25866;52.420;10.640;2023-04-03T12:50:58;7.70;92.10
40151;DHT22;25866;52.420;10.640;2023-04-03T12:53:32;7.10;91.50
40151;DHT22;25866;52.420;10.640;2023-04-03T12:56:26;6.80;89.10
40151;DHT22;25866;52.420;10.640;2023-04-03T12:58:55;6.70;91.30
40151;DHT22;25866;52.420;10.640;2023-04-03T13:01:25;6.70;91.30
40151;DHT22;25866;52.420;10.640;2023-04-03T13:03:57;7.20;92.00
40151;DHT22;25866;52.420;10.640;2023-04-03T13:06:43;7.70;91.80
40151;DHT22;25866;52.420;10.640;2023-04-03T13:09:27;7.60;89.80
40151;DHT22;25866;52.420;10.640;2023-04-03T13:12:03;7.20;89.10
40151;DHT22;25866;52.420;10.640;2023-04-03T13:14:36;7.00;89.90
40151;DHT22;25866;52.420;10.640;2023-04-03T13:17:15;7.00;90.90
40151;DHT22;25866;52.420;10.640;2023-04-03T13:19:42;7.20;91.90
40151;DHT22;25866;52.420;10.640;2023-04-03T13:22:33;7.70;92.20
40151;DHT22;25866;52.420;10.640;2023-04-03T13:25:06;8.20;91.10
40151;DHT22;25866;52.420;10.640;2023-04-03T13:27:33;8.50;88.30
40151;DHT22;25866;52.420;10.640;2023-04-03T13:30:03;8.20;85.30
40151;DHT22;25866;52.420;10.640;2023-04-03T13:32:30;8.00;89.30
40151;DHT22;25866;52.420;10.640;2023-04-03T13:34:56;7.80;90.40
40151;DHT22;25866;52.420;10.640;2023-04-03T13:37:30;7.60;88.40
40151;DHT22;25866;52.420;10.640;2023-04-03T13:40:11;7.40;90.20
40151;DHT22;25866;52.420;10.640;2023-04-03T13:42:38;7.30;89.80
40151;DHT22;25866;52.420;10.640;2023-04-03T13:45:24;7.50;91.00
40151;DHT22;25866;52.420;10.640;2023-04-03T13:48:08;7.50;91.00
40151;DHT22;25866;52.420;10.640;2023-04-03T13:50:59;7.20;89.70
40151;DHT22;25866;52.420;10.640;2023-04-03T13:53:26;7.10;90.60
40151;DHT22;25866;52.420;10.640;2023-04-03T13:56:08;7.10;91.00
40151;DHT22;25866;52.420;10.640;2023-04-03T13:58:36;7.20;91.10
40151;DHT22;25866;52.420;10.640;2023-04-03T14:01:17;7.10;89.30
40151;DHT22;25866;52.420;10.640;2023-04-03T14:06:17;7.30;90.50
40151;DHT22;25866;52.420;10.640;2023-04-03T14:08:44;7.60;90.90
40151;DHT22;25866;52.420;10.640;2023-04-03T14:11:22;7.90;89.10
40151;DHT22;25866;52.420;10.640;2023-04-03T14:13:49;8.10;87.60
40151;DHT22;25866;52.420;10.640;2023-04-03T14:16:20;7.90;89.10
40151;DHT22;25866;52.420;10.640;2023-04-03T14:18:47;7.60;88.30
40151;DHT22;25866;52.420;10.640;2023-04-03T14:21:15;7.40;89.70
40151;DHT22;25866;52.420;10.640;2023-04-03T14:23:41;7.30;91.00
40151;DHT22;25866;52.420;10.640;2023-04-03T14:26:16;7.50;91.30
40151;DHT22;25866;52.420;10.640;2023-04-03T14:28:44;7.50;91.20
40151;DHT22;25866;52.420;10.640;2023-04-03T14:31:12;7.50;89.30
40151;DHT22;25866;52.420;10.640;2023-04-03T14:33:38;7.60;90.60
40151;DHT22;25866;52.420;10.640;2023-04-03T14:36:14;7.40;88.50
40151;DHT22;25866;52.420;10.640;2023-04-03T14:38:40;7.20;88.50
40151;DHT22;25866;52.420;10.640;2023-04-03T14:41:06;7.00;87.20
40151;DHT22;25866;52.420;10.640;2023-04-03T14:43:32;7.00;90.20
40151;DHT22;25866;52.420;10.640;2023-04-03T14:45:58;7.10;88.60
40151;DHT22;25866;52.420;10.640;2023-04-03T14:48:27;7.50;88.80
40151;DHT22;25866;52.420;10.640;2023-04-03T14:50:53;7.70;89.50
40151;DHT22;25866;52.420;10.640;2023-04-03T14:53:20;7.70;89.40
40151;DHT22;25866;52.420;10.640;2023-04-03T14:55:50;7.50;85.90
40151;DHT22;25866;52.420;10.640;2023-04-03T14:58:19;7.40;88.00
40151;DHT22;25866;52.420;10.640;2023-04-03T15:00:45;7.20;90.00
40151;DHT22;25866;52.420;10.640;2023-04-03T15:03:19;7.10;88.40
40151;DHT22;25866;52.420;10.640;2023-04-03T15:05:47;6.90;88.40
40151;DHT22;25866;52.420;10.640;2023-04-03T15:10:44;6.70;90.60
40151;DHT22;25866;52.420;10.640;2023-04-03T15:13:12;6.90;87.20
40151;DHT22;25866;52.420;10.640;2023-04-03T15:15:38;7.10;89.90
40151;DHT22;25866;52.420;10.640;2023-04-03T15:18:04;7.20;88.80
40151;DHT22;25866;52.420;10.640;2023-04-03T15:20:30;7.00;86.90
40151;DHT22;25866;52.420;10.640;2023-04-03T15:22:59;7.10;88.10
40151;DHT22;25866;52.420;10.640;2023-04-03T15:25:26;7.10;86.90
40151;DHT22;25866;52.420;10.640;2023-04-03T15:27:54;7.20;89.90
40151;DHT22;25866;52.420;10.640;2023-04-03T15:30:20;7.10;90.60
40151;DHT22;25866;52.420;10.640;2023-04-03T15:32:47;7.10;89.30
40151;DHT22;25866;52.420;10.640;2023-04-03T15:35:13;7.10;89.00
40151;DHT22;25866;52.420;10.640;2023-04-03T15:37:39;7.10;88.70
40151;DHT22;25866;52.420;10.640;2023-04-03T15:40:05;7.00;89.90
40151;DHT22;25866;52.420;10.640;2023-04-03T15:42:31;6.80;90.40
40151;DHT22;25866;52.420;10.640;2023-04-03T15:44:57;6.70;90.00
40151;DHT22;25866;52.420;10.640;2023-04-03T15:47:24;6.70;90.60
40151;DHT22;25866;52.420;10.640;2023-04-03T15:49:50;6.60;90.30
40151;DHT22;25866;52.420;10.640;2023-04-03T15:52:16;6.70;90.20
40151;DHT22;25866;52.420;10.640;2023-04-03T15:54:42;7.00;90.10
40151;DHT22;25866;52.420;10.640;2023-04-03T15:57:08;6.90;89.50
40151;DHT22;25866;52.420;10.640;2023-04-03T15:59:33;7.00;90.00
40151;DHT22;25866;52.420;10.640;2023-04-03T16:02:01;7.00;87.20
40151;DHT22;25866;52.420;10.640;2023-04-03T16:04:29;6.70;87.90
40151;DHT22;25866;52.420;10.640;2023-04-03T16:06:55;6.50;90.20
40151;DHT22;25866;52.420;10.640;2023-04-03T16:09:21;6.40;90.60
40151;DHT22;25866;52.420;10.640;2023-04-03T16:11:47;6.30;89.50
40151;DHT22;25866;52.420;10.640;2023-04-03T16:14:12;6.20;91.10
40151;DHT22;25866;52.420;10.640;2023-04-03T16:16:38;6.20;90.70
40151;DHT22;25866;52.420;10.640;2023-04-03T16:19:05;6.10;90.80
40151;DHT22;25866;52.420;10.640;2023-04-03T16:21:32;6.10;91.00
40151;DHT22;25866;52.420;10.640;2023-04-03T16:23:58;6.10;91.20
40151;DHT22;25866;52.420;10.640;2023-04-03T16:26:24;6.10;91.10
40151;DHT22;25866;52.420;10.640;2023-04-03T16:28:51;6.10;91.20
40151;DHT22;25866;52.420;10.640;2023-04-03T16:31:17;6.00;92.00
40151;DHT22;25866;52.420;10.640;2023-04-03T16:33:44;6.10;92.10
40151;DHT22;25866;52.420;10.640;2023-04-03T16:36:09;6.10;91.30
40151;DHT22;25866;52.420;10.640;2023-04-03T16:38:35;6.10;89.70
40151;DHT22;25866;52.420;10.640;2023-04-03T16:41:01;6.10;90.80
40151;DHT22;25866;52.420;10.640;2023-04-03T16:43:30;6.10;91.30
40151;DHT22;25866;52.420;10.640;2023-04-03T16:45:57;6.10;90.30
40151;DHT22;25866;52.420;10.640;2023-04-03T16:48:22;6.10;88.60
40151;DHT22;25866;52.420;10.640;2023-04-03T16:50:49;6.10;90.50
40151;DHT22;25866;52.420;10.640;2023-04-03T16:53:18;6.20;90.60
40151;DHT22;25866;52.420;10.640;2023-04-03T16:55:43;6.20;90.80
40151;DHT22;25866;52.420;10.640;2023-04-03T16:58:09;6.30;90.50
40151;DHT22;25866;52.420;10.640;2023-04-03T17:00:35;6.30;90.90
40151;DHT22;25866;52.420;10.640;2023-04-03T17:03:01;6.30;89.60
40151;DHT22;25866;52.420;10.640;2023-04-03T17:05:27;6.20;90.30
40151;DHT22;25866;52.420;10.640;2023-04-03T17:07:53;6.10;90.20
40151;DHT22;25866;52.420;10.640;2023-04-03T17:10:19;6.00;90.90